createdAt,value
2022-08-23T00:03:04.194Z,73.52
2022-08-23T00:08:08.323Z,73.33
2022-08-23T00:13:12.567Z,74.25
2022-08-23T00:18:16.630Z,75.59
2022-08-23T00:23:19.819Z,76.09
2022-08-23T00:28:24.207Z,76.53
2022-08-23T00:33:27.445Z,76.62
2022-08-23T00:38:34.215Z,78.28
2022-08-23T00:44:00.071Z,78.00
2022-08-23T00:49:08.295Z,77.63
2022-08-23T00:54:12.433Z,76.88
2022-08-23T00:59:17.037Z,77.65
2022-08-23T01:04:20.921Z,77.73
2022-08-23T01:09:23.953Z,77.67
2022-08-23T01:14:33.183Z,78.70
2022-08-23T01:19:38.695Z,80.25
2022-08-23T01:25:07.268Z,80.46
2022-08-23T01:30:12.893Z,80.03
2022-08-23T01:35:16.944Z,80.73
2022-08-23T01:40:21.897Z,81.57
2022-08-23T01:45:25.059Z,81.95
2022-08-23T01:50:29.653Z,80.25
2022-08-23T01:55:35.001Z,79.44
2022-08-23T02:00:41.774Z,79.67
2022-08-23T02:05:45.812Z,78.93
2022-08-23T02:10:50.944Z,79.44
2022-08-23T02:15:55.172Z,80.77
2022-08-23T02:21:00.036Z,80.59
2022-08-23T02:26:07.086Z,81.35
2022-08-23T02:31:10.330Z,80.86
2022-08-23T02:36:15.613Z,80.71
2022-08-23T02:41:20.002Z,81.68
2022-08-23T02:46:23.734Z,81.81
2022-08-23T02:51:28.553Z,83.35
2022-08-23T02:56:33.080Z,84.90
2022-08-23T03:01:39.813Z,83.86
2022-08-23T03:06:55.444Z,83.70
2022-08-23T03:12:00.012Z,84.24
2022-08-23T03:17:03.748Z,83.52
2022-08-23T03:22:06.971Z,82.78
2022-08-23T03:27:12.713Z,83.35
2022-08-23T03:32:17.477Z,84.33
2022-08-23T03:37:22.256Z,84.31
2022-08-23T03:42:30.808Z,84.19
2022-08-23T03:47:37.182Z,84.91
2022-08-23T03:52:41.239Z,84.02
2022-08-23T03:57:46.016Z,84.81
2022-08-23T04:02:50.379Z,84.15
2022-08-23T04:07:55.166Z,83.28
2022-08-23T04:13:01.878Z,86.10
2022-08-23T04:18:05.260Z,83.75
2022-08-23T04:23:09.627Z,84.19
2022-08-23T04:28:25.143Z,87.18
2022-08-23T04:33:28.904Z,86.51
2022-08-23T04:38:34.954Z,86.91
2022-08-23T04:43:45.034Z,87.00
2022-08-23T04:48:49.790Z,87.41
2022-08-23T04:53:55.458Z,87.00
2022-08-23T04:59:16.853Z,87.93
2022-08-23T05:04:21.717Z,87.09
2022-08-23T05:09:25.236Z,87.22
2022-08-23T05:14:29.869Z,87.58
2022-08-23T05:19:32.989Z,88.36
2022-08-23T05:24:36.145Z,87.92
2022-08-23T05:29:40.742Z,87.29
2022-08-23T05:34:43.784Z,88.98
2022-08-23T05:39:47.146Z,89.75
2022-08-23T05:44:51.631Z,90.92
2022-08-23T05:49:56.856Z,89.45
2022-08-23T05:55:00.823Z,88.80
2022-08-23T06:00:37.385Z,86.01
2022-08-23T06:05:44.297Z,86.26
2022-08-23T06:10:48.644Z,86.17
2022-08-23T06:16:14.458Z,86.70
2022-08-23T06:21:18.753Z,85.68
2022-08-23T06:26:27.095Z,84.43
2022-08-23T06:31:47.736Z,83.96
2022-08-23T06:37:05.881Z,84.48
2022-08-23T06:42:42.764Z,84.02
2022-08-23T06:47:47.303Z,82.05
2022-08-23T06:52:50.664Z,81.63
2022-08-23T06:58:04.827Z,80.86
2022-08-23T07:03:29.652Z,79.23
2022-08-23T07:08:58.940Z,79.61
2022-08-23T07:14:04.219Z,79.44
2022-08-23T07:19:09.851Z,78.18
2022-08-23T07:24:15.696Z,78.70
2022-08-23T07:29:23.877Z,79.34
2022-08-23T07:34:30.131Z,79.60
2022-08-23T07:39:33.338Z,80.46
2022-08-23T07:44:37.805Z,79.23
2022-08-23T07:49:42.392Z,78.15
2022-08-23T07:54:48.258Z,77.42
2022-08-23T08:00:02.214Z,77.23
2022-08-23T08:05:27.947Z,76.84
2022-08-23T08:10:33.414Z,76.02
2022-08-23T08:15:37.346Z,75.62
2022-08-23T08:20:46.750Z,74.97
2022-08-23T08:26:23.133Z,73.74
2022-08-23T08:31:30.792Z,71.76
2022-08-23T08:36:39.251Z,70.60
2022-08-23T08:42:03.948Z,68.96
2022-08-23T08:47:15.454Z,66.74
2022-08-23T08:52:25.631Z,63.38
2022-08-23T08:57:37.157Z,64.47
2022-08-23T09:02:40.815Z,63.71
2022-08-23T09:07:57.979Z,62.22
2022-08-23T09:13:19.985Z,59.94
2022-08-23T09:18:24.409Z,59.04
2022-08-23T09:23:35.644Z,57.87
2022-08-23T09:28:39.032Z,56.99
2022-08-23T09:33:46.083Z,52.30
2022-08-23T09:39:30.989Z,55.44
2022-08-23T09:44:44.184Z,53.89
2022-08-23T09:49:51.404Z,54.08
2022-08-23T09:55:00.904Z,51.50
2022-08-23T10:00:25.162Z,48.48
2022-08-23T10:05:36.985Z,48.84
2022-08-23T10:10:50.701Z,48.40
2022-08-23T10:16:11.149Z,47.77
2022-08-23T10:21:33.935Z,46.41
2022-08-23T10:26:46.422Z,45.33
2022-08-23T10:31:59.520Z,45.15
2022-08-23T10:37:22.736Z,45.43
2022-08-23T10:42:36.720Z,44.43
2022-08-23T10:47:55.508Z,45.55
2022-08-23T10:53:08.646Z,44.26
2022-08-23T10:58:19.995Z,44.02
2022-08-23T11:03:31.157Z,42.81
2022-08-23T11:08:47.488Z,43.40
2022-08-23T11:13:55.073Z,42.70
2022-08-23T11:18:58.763Z,43.86
2022-08-23T11:25:04.191Z,44.05
2022-08-23T11:30:45.575Z,42.55
2022-08-23T11:35:52.760Z,42.55
2022-08-23T11:41:00.493Z,43.52
2022-08-23T11:46:35.788Z,41.39
2022-08-23T11:51:59.015Z,43.82
2022-08-23T11:57:16.925Z,42.82
2022-08-23T12:02:53.491Z,43.41
2022-08-23T12:08:43.261Z,42.98
2022-08-23T12:14:30.209Z,42.92
2022-08-23T12:19:40.443Z,42.20
2022-08-23T12:24:47.501Z,42.01
2022-08-23T12:30:00.035Z,43.60
2022-08-23T12:35:19.001Z,42.85
2022-08-23T12:40:29.298Z,44.29
2022-08-23T12:45:39.046Z,43.01
2022-08-23T12:50:45.581Z,44.83
2022-08-23T12:55:51.116Z,43.98
2022-08-23T13:00:56.463Z,45.18
2022-08-23T13:06:05.141Z,43.53
2022-08-23T13:11:10.158Z,43.58
2022-08-23T13:16:28.969Z,43.89
2022-08-23T13:21:40.041Z,44.19
2022-08-23T13:26:50.670Z,43.37
2022-08-23T13:32:03.231Z,44.46
2022-08-23T13:37:20.956Z,46.00
2022-08-23T13:42:32.982Z,45.33
2022-08-23T13:47:36.520Z,46.06
2022-08-23T13:53:03.238Z,47.35
2022-08-23T13:58:12.000Z,45.05
2022-08-23T14:03:15.049Z,47.10
2022-08-23T14:08:19.617Z,47.79
2022-08-23T14:13:28.907Z,49.37
2022-08-23T14:18:32.423Z,47.61
2022-08-23T14:23:37.096Z,48.99
2022-08-23T14:28:44.325Z,47.04
2022-08-23T14:33:48.214Z,47.77
2022-08-23T14:38:52.764Z,47.26
2022-08-23T14:43:55.960Z,48.02
2022-08-23T14:48:59.180Z,48.90
2022-08-23T14:54:05.643Z,45.64
2022-08-23T14:59:08.661Z,48.44
2022-08-23T15:04:12.895Z,46.88
2022-08-23T15:09:17.554Z,47.55
2022-08-23T15:14:20.529Z,46.83
2022-08-23T15:19:23.518Z,47.29
2022-08-23T15:24:27.931Z,46.83
2022-08-23T15:29:31.111Z,47.18
2022-08-23T15:34:36.867Z,45.89
2022-08-23T15:39:44.517Z,46.99
2022-08-23T15:44:48.078Z,49.00
2022-08-23T15:49:51.904Z,46.17
2022-08-23T15:54:56.668Z,46.68
2022-08-23T15:59:59.703Z,47.27
2022-08-23T16:05:02.935Z,48.01
2022-08-23T16:10:08.837Z,47.07
2022-08-23T16:15:12.279Z,47.11
2022-08-23T16:20:15.324Z,45.60
2022-08-23T16:25:21.228Z,46.65
2022-08-23T16:30:40.126Z,47.09
2022-08-23T16:35:43.210Z,47.99
2022-08-23T16:40:47.550Z,48.27
2022-08-23T16:45:51.053Z,47.52
2022-08-23T16:50:56.717Z,49.29
2022-08-23T16:56:01.047Z,48.28
2022-08-23T17:01:04.230Z,49.90
2022-08-23T17:06:07.846Z,49.25
2022-08-23T17:11:19.746Z,49.50
2022-08-23T17:16:24.270Z,48.96
2022-08-23T17:21:27.999Z,50.18
2022-08-23T17:26:33.293Z,50.46
2022-08-23T17:31:36.745Z,50.75
2022-08-23T17:36:47.615Z,49.97
2022-08-23T17:41:53.826Z,51.26
2022-08-23T17:46:57.096Z,51.78
2022-08-23T17:52:00.187Z,51.93
2022-08-23T17:57:04.867Z,51.39
2022-08-23T18:02:08.616Z,54.72
2022-08-23T18:07:11.741Z,59.50
2022-08-23T18:12:16.057Z,62.08
2022-08-23T18:17:19.445Z,63.82
2022-08-23T18:22:22.389Z,65.31
2022-08-23T18:27:44.137Z,66.77
2022-08-23T18:32:50.136Z,69.10
2022-08-23T18:37:53.252Z,69.37
2022-08-23T18:42:58.275Z,71.09
2022-08-23T18:48:03.704Z,71.54
2022-08-23T18:53:07.898Z,71.74
2022-08-23T18:58:13.216Z,72.90
2022-08-23T19:03:16.558Z,73.44
2022-08-23T19:08:19.610Z,74.29
2022-08-23T19:13:24.116Z,74.59
2022-08-23T19:18:27.772Z,75.24
2022-08-23T19:23:30.851Z,76.03
2022-08-23T19:28:38.616Z,78.44
2022-08-23T19:33:43.814Z,77.81
2022-08-23T19:38:46.907Z,79.95
2022-08-23T19:43:51.393Z,80.05
2022-08-23T19:48:54.565Z,81.72
2022-08-23T19:54:11.197Z,81.02
2022-08-23T19:59:20.525Z,81.79
2022-08-23T20:04:24.476Z,81.17
2022-08-23T20:09:29.581Z,83.53
2022-08-23T20:14:35.324Z,83.62
2022-08-23T20:19:38.927Z,83.67
2022-08-23T20:24:51.330Z,85.02
2022-08-23T20:29:57.217Z,85.61
2022-08-23T20:35:01.448Z,85.55
2022-08-23T20:40:06.043Z,86.46
2022-08-23T20:45:11.638Z,87.68
2022-08-23T20:50:14.601Z,88.63
2022-08-23T20:55:17.871Z,88.19
2022-08-23T21:00:22.938Z,87.06
2022-08-23T21:05:26.130Z,87.95
2022-08-23T21:10:29.207Z,87.38
2022-08-23T21:15:33.855Z,90.66
2022-08-23T21:20:37.030Z,89.47
2022-08-23T21:25:40.271Z,91.28
2022-08-23T21:30:44.737Z,91.02
2022-08-23T21:35:47.819Z,91.71
2022-08-23T21:40:58.219Z,92.18
2022-08-23T21:46:04.917Z,90.59
2022-08-23T21:51:09.021Z,88.81
2022-08-23T21:56:12.022Z,89.09
2022-08-23T22:01:16.661Z,89.47
2022-08-23T22:06:19.760Z,90.79
2022-08-23T22:11:23.740Z,87.52
2022-08-23T22:16:28.390Z,85.85
2022-08-23T22:21:31.774Z,85.25
2022-08-23T22:26:39.021Z,86.42
2022-08-23T22:31:44.061Z,88.13
2022-08-23T22:36:52.065Z,87.57
2022-08-23T22:41:56.147Z,87.32
2022-08-23T22:47:00.723Z,86.89
2022-08-23T22:52:06.793Z,87.75
2022-08-23T22:57:09.802Z,88.06
2022-08-23T23:02:14.125Z,88.36
2022-08-23T23:07:39.425Z,88.74
2022-08-23T23:12:42.548Z,89.58
2022-08-23T23:17:46.943Z,89.85
2022-08-23T23:22:51.927Z,89.72
2022-08-23T23:27:54.919Z,90.48
2022-08-23T23:33:06.297Z,90.95
2022-08-23T23:38:10.185Z,90.30
2022-08-23T23:43:13.577Z,89.75
2022-08-23T23:48:17.948Z,90.00
2022-08-23T23:53:20.948Z,90.81
2022-08-23T23:58:23.897Z,89.72
